Time;durP1;ratioP1;P1;durP2;ratioP2;P2;SDS_P1;SDS_P2;PMS_P1;PMS_P2;Temp;Humidity;BMP_temperature;BMP_pressure;BME280_temperature;BME280_humidity;BME280_pressure;Samples;Min_cycle;Max_cycle;Signal;HPM_P1;HPM_P2
2022/05/24 00:01:18;;;;;;;;;;;;;;;21.41;30.43;97564.66;5038450;28;986;-72
2022/05/24 00:03:43;;;;;;;;;;;;;;;21.41;30.56;97571.09;5038440;28;1068;-72
2022/05/24 00:06:09;;;;;;;;;;;;;;;21.55;31.21;97564.16;5038408;28;965;-72
2022/05/24 00:08:35;;;;;;;;;;;;;;;21.78;30.54;97572.28;5038260;28;905;-71
2022/05/24 00:11:01;;;;;;;;;;;;;;;21.76;30.20;97580.47;5053781;28;973;-72
2022/05/24 00:13:26;;;;;;;;;;;;;;;21.63;30.49;97588.16;5037982;28;963;-72
2022/05/24 00:15:51;;;;;;;;;;;;;;;21.49;30.66;97582.97;5038151;28;1910;-72
2022/05/24 00:18:23;;;;;;;;;;;;;;;21.49;30.65;97572.44;5037576;28;930;-72
2022/05/24 00:20:50;;;;;;;;;;;;;;;21.30;30.77;97579.16;5038175;28;951;-72
2022/05/24 00:23:15;;;;;;;;;;;;;;;21.24;30.97;97578.91;5038200;28;995;-72
2022/05/24 00:25:42;;;;;;;;;;;;;;;21.30;30.94;97571.44;5037525;28;960;-72
2022/05/24 00:28:08;;;;;;;;;;;;;;;21.16;31.50;97560.56;5037823;28;1029;-72
2022/05/24 00:30:33;;;;;;;;;;;;;;;21.40;30.58;97560.22;5037835;28;978;-72
2022/05/24 00:32:59;;;;;;;;;;;;;;;21.29;30.90;97569.81;5053113;28;1002;-73
2022/05/24 00:35:24;;;;;;;;;;;;;;;21.22;31.05;97574.94;5037655;28;1987;-72
2022/05/24 00:37:50;;;;;;;;;;;;;;;21.14;31.08;97563.06;5037893;28;986;-72
2022/05/24 00:40:20;;;;;;;;;;;;;;;21.23;30.90;97563.16;5037804;28;1174;-72
2022/05/24 00:42:46;;;;;;;;;;;;;;;21.45;30.80;97556.81;5037334;28;1013;-72
2022/05/24 00:45:19;;;;;;;;;;;;;;;21.63;30.84;97561.91;5037375;28;920;-72
2022/05/24 00:48:04;;;;;;;;;;;;;;;21.70;31.23;97565.28;5053224;28;965;-72
2022/05/24 00:50:37;;;;;;;;;;;;;;;21.96;30.52;97566.00;5052315;28;1029;-72
2022/05/24 00:53:06;;;;;;;;;;;;;;;21.56;31.06;97560.91;5053002;28;999;-72
2022/05/24 00:55:50;;;;;;;;;;;;;;;21.41;30.75;97564.66;5036881;28;1913;-72
2022/05/24 00:58:31;;;;;;;;;;;;;;;21.45;30.54;97568.13;5014661;28;1005;-72
2022/05/24 01:00:56;;;;;;;;;;;;;;;21.30;30.75;97574.28;5015128;28;1007;-71
2022/05/24 01:03:22;;;;;;;;;;;;;;;21.28;30.80;97573.91;5015055;28;971;-72
2022/05/24 01:05:47;;;;;;;;;;;;;;;21.38;30.58;97571.22;5015138;28;1146;-72
2022/05/24 01:08:13;;;;;;;;;;;;;;;21.47;30.68;97574.94;5014938;28;1022;-72
2022/05/24 01:10:50;;;;;;;;;;;;;;;21.28;31.24;97582.38;5014771;28;993;-72
2022/05/24 01:13:20;;;;;;;;;;;;;;;21.18;30.96;97563.72;5015105;28;916;-73
2022/05/24 01:15:45;;;;;;;;;;;;;;;21.29;31.01;97595.28;5014833;28;1999;-72
2022/05/24 01:18:11;;;;;;;;;;;;;;;21.20;31.01;97580.25;5014864;28;1031;-73
2022/05/24 01:20:37;;;;;;;;;;;;;;;21.40;30.47;97571.53;5014744;28;1016;-72
2022/05/24 01:23:22;;;;;;;;;;;;;;;21.32;30.81;97580.28;5014972;28;946;-72
2022/05/24 01:25:47;;;;;;;;;;;;;;;21.06;31.11;97595.63;5014516;28;1062;-72
2022/05/24 01:28:31;;;;;;;;;;;;;;;21.20;31.13;97603.69;5014429;28;989;-72
2022/05/24 01:30:56;;;;;;;;;;;;;;;21.21;31.10;97598.81;5014877;28;1190;-72
2022/05/24 01:36:09;;;;;;;;;;;;;;;21.65;31.40;97579.22;5000635;28;1906;-72
2022/05/24 01:38:34;;;;;;;;;;;;;;;21.90;31.00;97581.19;4975200;28;1046;-72
2022/05/24 01:41:00;;;;;;;;;;;;;;;21.82;30.64;97577.84;4959293;28;1038;-73
2022/05/24 01:43:26;;;;;;;;;;;;;;;21.53;30.98;97590.09;4958835;28;1351;-72
2022/05/24 01:45:52;;;;;;;;;;;;;;;21.44;30.81;97594.88;4959280;28;1000;-72
2022/05/24 01:48:19;;;;;;;;;;;;;;;21.44;31.05;97595.66;4959205;28;1235;-72
2022/05/24 01:50:45;;;;;;;;;;;;;;;21.36;30.89;97591.50;4958956;28;1156;-72
2022/05/24 01:53:11;;;;;;;;;;;;;;;21.25;30.98;97580.47;4959135;28;1045;-72
2022/05/24 01:55:40;;;;;;;;;;;;;;;21.29;31.21;97574.69;4959319;28;1911;-72
2022/05/24 01:58:06;;;;;;;;;;;;;;;21.23;30.89;97580.13;4994675;28;1697;-72
2022/05/24 02:00:32;;;;;;;;;;;;;;;21.22;31.25;97589.88;4961909;28;1148;-72
2022/05/24 02:02:57;;;;;;;;;;;;;;;21.10;31.49;97592.69;4993473;28;1119;-72
2022/05/24 02:05:33;;;;;;;;;;;;;;;21.18;31.33;97591.22;4961998;28;1026;-72
2022/05/24 02:07:58;;;;;;;;;;;;;;;21.27;30.80;97580.00;4994963;28;1002;-72
2022/05/24 02:10:24;;;;;;;;;;;;;;;21.29;30.80;97575.47;5030388;28;1089;-72
2022/05/24 02:12:51;;;;;;;;;;;;;;;21.30;30.68;97582.78;5016952;28;1022;-72
2022/05/24 02:15:18;;;;;;;;;;;;;;;21.28;30.68;97585.22;5036231;28;1982;-72
2022/05/24 02:17:44;;;;;;;;;;;;;;;21.33;30.65;97581.84;5051345;28;999;-72
2022/05/24 02:20:10;;;;;;;;;;;;;;;21.61;31.36;97587.84;5036121;28;951;-72
2022/05/24 02:22:35;;;;;;;;;;;;;;;21.91;30.64;97588.44;5051828;28;1019;-72
2022/05/24 02:25:06;;;;;;;;;;;;;;;21.75;30.77;97583.72;5051036;28;931;-72
2022/05/24 02:27:33;;;;;;;;;;;;;;;21.52;30.90;97594.19;5051009;28;1052;-72
2022/05/24 02:29:58;;;;;;;;;;;;;;;21.44;30.76;97601.31;5038390;28;911;-72
2022/05/24 02:32:24;;;;;;;;;;;;;;;21.44;30.64;97597.69;5017932;28;1130;-72
2022/05/24 02:34:49;;;;;;;;;;;;;;;21.47;30.48;97602.47;5051154;28;1902;-72
2022/05/24 02:37:15;;;;;;;;;;;;;;;21.41;30.71;97598.63;5035852;28;917;-72
2022/05/24 02:42:24;;;;;;;;;;;;;;;21.32;31.19;97582.31;5048812;28;1214;-72
2022/05/24 02:44:50;;;;;;;;;;;;;;;21.29;31.20;97586.78;5017863;28;950;-72
2022/05/24 02:47:15;;;;;;;;;;;;;;;21.41;31.04;97587.28;5033603;28;938;-72
2022/05/24 02:49:41;;;;;;;;;;;;;;;21.42;30.68;97583.22;5051067;28;954;-72
2022/05/24 02:52:06;;;;;;;;;;;;;;;21.44;30.48;97575.84;5036000;28;907;-72
2022/05/24 02:54:32;;;;;;;;;;;;;;;21.05;31.32;97580.69;5035496;28;1894;-72
2022/05/24 02:57:01;;;;;;;;;;;;;;;21.22;30.88;97581.38;5035797;28;970;-72
2022/05/24 02:59:26;;;;;;;;;;;;;;;21.22;31.00;97587.03;5017930;28;1237;-72
2022/05/24 03:01:52;;;;;;;;;;;;;;;21.23;31.26;97588.59;5012393;28;1084;-72
2022/05/24 03:04:17;;;;;;;;;;;;;;;21.19;30.97;97587.13;4996785;28;1314;-72
2022/05/24 03:09:35;;;;;;;;;;;;;;;21.25;30.88;97591.00;4970950;28;1233;-73
2022/05/24 03:14:45;;;;;;;;;;;;;;;21.91;30.79;97579.94;4974607;28;1911;-73
2022/05/24 03:17:10;;;;;;;;;;;;;;;21.75;30.82;97578.84;4986750;28;1271;-74
2022/05/24 03:19:36;;;;;;;;;;;;;;;21.58;30.70;97592.38;4986725;28;1471;-74
2022/05/24 03:22:01;;;;;;;;;;;;;;;21.51;30.66;97591.81;4950027;29;1300;-74
2022/05/24 03:24:27;;;;;;;;;;;;;;;21.35;31.15;97594.75;4939391;29;1250;-74
2022/05/24 03:26:52;;;;;;;;;;;;;;;21.30;31.01;97599.75;4939253;29;955;-74
2022/05/24 03:29:18;;;;;;;;;;;;;;;21.19;31.24;97590.78;4944247;29;1173;-73
2022/05/24 03:31:43;;;;;;;;;;;;;;;21.31;31.02;97604.16;4929955;29;1216;-74
2022/05/24 03:34:08;;;;;;;;;;;;;;;21.26;30.89;97610.34;4935721;29;1267;-74
2022/05/24 03:36:34;;;;;;;;;;;;;;;21.29;31.06;97615.09;4935622;29;1987;-74
2022/05/24 03:38:59;;;;;;;;;;;;;;;21.37;30.63;97617.75;4931414;29;1458;-73
2022/05/24 03:41:25;;;;;;;;;;;;;;;21.24;31.17;97610.03;4936196;29;1360;-73
2022/05/24 03:43:50;;;;;;;;;;;;;;;21.37;30.60;97620.56;4930973;29;1327;-74
2022/05/24 03:46:16;;;;;;;;;;;;;;;21.43;30.58;97624.41;4930695;29;1320;-74
2022/05/24 03:48:41;;;;;;;;;;;;;;;21.23;30.89;97622.56;4926283;29;1042;-74
2022/05/24 03:51:09;;;;;;;;;;;;;;;21.23;30.67;97624.59;4953153;29;1004;-73
2022/05/24 03:53:34;;;;;;;;;;;;;;;21.23;30.89;97631.06;4972201;28;947;-73
2022/05/24 03:56:00;;;;;;;;;;;;;;;21.66;30.98;97620.44;4976827;28;1915;-74
2022/05/24 03:58:25;;;;;;;;;;;;;;;21.93;30.25;97617.91;4977127;28;1119;-74
2022/05/24 04:00:51;;;;;;;;;;;;;;;21.74;30.32;97622.59;4977362;28;948;-73
2022/05/24 04:03:16;;;;;;;;;;;;;;;21.50;30.86;97629.84;5007416;28;963;-73
2022/05/24 04:05:45;;;;;;;;;;;;;;;21.33;30.86;97629.97;5018406;28;977;-73
2022/05/24 04:08:10;;;;;;;;;;;;;;;21.37;30.37;97614.91;5018559;28;922;-73
2022/05/24 04:10:36;;;;;;;;;;;;;;;21.40;30.45;97628.13;5018397;28;1063;-73
2022/05/24 04:13:01;;;;;;;;;;;;;;;21.36;30.46;97631.09;5015603;28;1151;-74
2022/05/24 04:15:27;;;;;;;;;;;;;;;21.45;30.61;97621.91;5015960;28;1975;-73
2022/05/24 04:17:52;;;;;;;;;;;;;;;21.36;30.79;97635.97;4999623;28;1031;-74
2022/05/24 04:20:18;;;;;;;;;;;;;;;21.21;30.90;97629.94;4999693;28;1064;-73
2022/05/24 04:22:44;;;;;;;;;;;;;;;21.27;31.10;97637.41;4960654;28;1067;-74
2022/05/24 04:25:09;;;;;;;;;;;;;;;21.41;31.02;97635.41;4975845;28;1094;-74
2022/05/24 04:27:34;;;;;;;;;;;;;;;21.57;31.09;97623.97;4956965;29;1197;-73
2022/05/24 04:30:00;;;;;;;;;;;;;;;21.88;30.60;97629.03;4956937;29;1221;-73
2022/05/24 04:32:25;;;;;;;;;;;;;;;21.57;30.61;97636.09;4909477;29;1016;-74
2022/05/24 04:34:51;;;;;;;;;;;;;;;21.59;30.63;97627.91;4957047;28;1972;-73
2022/05/24 04:37:16;;;;;;;;;;;;;;;21.54;30.62;97628.47;4940922;29;973;-74
2022/05/24 04:39:42;;;;;;;;;;;;;;;21.35;30.98;97628.72;4957169;28;993;-73
2022/05/24 04:42:21;;;;;;;;;;;;;;;21.35;31.20;97628.72;4957090;29;1123;-74
2022/05/24 04:44:48;;;;;;;;;;;;;;;21.32;31.02;97630.41;4957072;29;947;-73
2022/05/24 04:47:13;;;;;;;;;;;;;;;21.41;30.77;97624.88;4956719;29;1048;-73
2022/05/24 04:49:40;;;;;;;;;;;;;;;21.28;31.24;97630.50;4957111;29;1059;-74
2022/05/24 04:52:10;;;;;;;;;;;;;;;21.30;30.90;97628.06;4956836;29;1020;-74
2022/05/24 04:54:39;;;;;;;;;;;;;;;21.28;31.02;97624.84;4974017;28;1989;-74
2022/05/24 04:57:05;;;;;;;;;;;;;;;21.19;31.39;97633.22;4979436;28;990;-73
2022/05/24 04:59:30;;;;;;;;;;;;;;;21.35;30.70;97623.88;5013893;28;961;-73
2022/05/24 05:01:55;;;;;;;;;;;;;;;21.40;30.71;97625.31;5001537;28;846;-74
2022/05/24 05:04:22;;;;;;;;;;;;;;;21.33;30.73;97638.44;5034763;28;1023;-73
2022/05/24 05:06:48;;;;;;;;;;;;;;;21.30;30.92;97644.25;5018593;28;1346;-74
2022/05/24 05:09:13;;;;;;;;;;;;;;;21.05;31.21;97645.75;5034781;28;1104;-74
2022/05/24 05:11:39;;;;;;;;;;;;;;;21.30;31.01;97642.19;4995047;28;1005;-74
2022/05/24 05:14:04;;;;;;;;;;;;;;;21.58;31.33;97646.16;4995145;28;963;-74
2022/05/24 05:16:30;;;;;;;;;;;;;;;21.88;31.07;97654.53;4995229;28;1996;-74
2022/05/24 05:18:56;;;;;;;;;;;;;;;21.68;30.83;97641.41;4979906;28;1041;-73
2022/05/24 05:21:21;;;;;;;;;;;;;;;21.54;31.01;97641.84;4975685;28;1045;-74
2022/05/24 05:23:46;;;;;;;;;;;;;;;21.44;30.89;97649.44;4994935;28;969;-73
2022/05/24 05:26:14;;;;;;;;;;;;;;;21.56;30.91;97651.50;4994685;28;1004;-74
2022/05/24 05:28:40;;;;;;;;;;;;;;;21.43;30.83;97658.38;4994892;28;1074;-73
2022/05/24 05:31:19;;;;;;;;;;;;;;;21.49;30.91;97653.75;4994949;28;950;-74
2022/05/24 05:33:45;;;;;;;;;;;;;;;21.33;31.11;97666.75;4995070;28;964;-74
2022/05/24 05:36:11;;;;;;;;;;;;;;;21.36;31.19;97655.78;4982134;28;1926;-73
2022/05/24 05:38:36;;;;;;;;;;;;;;;21.24;31.13;97663.78;4991746;28;1076;-74
2022/05/24 05:41:02;;;;;;;;;;;;;;;21.23;31.20;97662.19;4985141;28;1230;-73
2022/05/24 05:43:27;;;;;;;;;;;;;;;21.39;30.79;97664.16;4992919;28;1200;-73
2022/05/24 05:45:56;;;;;;;;;;;;;;;21.32;31.16;97668.00;4994742;28;1027;-73
2022/05/24 05:48:22;;;;;;;;;;;;;;;21.31;31.05;97669.25;4994660;28;1044;-73
2022/05/24 05:50:47;;;;;;;;;;;;;;;21.35;30.72;97668.31;4994715;28;1032;-73
2022/05/24 05:53:13;;;;;;;;;;;;;;;21.19;31.29;97672.84;4939580;29;1157;-74
2022/05/24 05:55:39;;;;;;;;;;;;;;;21.21;30.96;97670.34;4955746;29;1906;-73
2022/05/24 05:58:06;;;;;;;;;;;;;;;21.21;30.83;97673.16;4955820;29;1010;-74
2022/05/24 06:00:31;;;;;;;;;;;;;;;21.22;31.17;97666.25;4951738;29;1048;-73
2022/05/24 06:02:57;;;;;;;;;;;;;;;21.27;31.08;97668.53;4936382;29;1022;-73
2022/05/24 06:05:23;;;;;;;;;;;;;;;21.38;30.67;97661.78;4936739;29;905;-74
2022/05/24 06:07:48;;;;;;;;;;;;;;;21.23;31.02;97672.72;4965608;28;1052;-73
2022/05/24 06:10:14;;;;;;;;;;;;;;;21.25;30.95;97676.69;4974992;28;1016;-73
2022/05/24 06:12:39;;;;;;;;;;;;;;;21.35;30.65;97674.81;4955299;29;1079;-74
2022/05/24 06:15:05;;;;;;;;;;;;;;;21.50;31.36;97667.47;4955366;29;1911;-73
2022/05/24 06:17:30;;;;;;;;;;;;;;;21.65;31.48;97676.28;4955693;29;1282;-73
2022/05/24 06:20:01;;;;;;;;;;;;;;;21.90;31.00;97669.81;4955567;29;1035;-73
2022/05/24 06:22:27;;;;;;;;;;;;;;;21.73;30.93;97674.03;4939556;29;949;-73
2022/05/24 06:24:52;;;;;;;;;;;;;;;21.41;31.26;97667.34;4987933;28;975;-73
2022/05/24 06:27:21;;;;;;;;;;;;;;;21.49;30.99;97668.69;5014317;28;980;-73
2022/05/24 06:29:46;;;;;;;;;;;;;;;21.48;30.85;97672.75;5013811;28;1049;-73
2022/05/24 06:32:12;;;;;;;;;;;;;;;21.36;30.87;97675.59;5013689;28;1086;-74
2022/05/24 06:34:37;;;;;;;;;;;;;;;21.28;31.38;97681.44;5013844;28;1910;-73
2022/05/24 06:37:03;;;;;;;;;;;;;;;21.49;30.83;97673.56;5013615;28;975;-74
2022/05/24 06:39:29;;;;;;;;;;;;;;;21.41;31.25;97677.88;5013808;28;1026;-73
2022/05/24 06:41:55;;;;;;;;;;;;;;;21.46;31.17;97677.31;5013662;28;1085;-73
2022/05/24 06:44:27;;;;;;;;;;;;;;;21.42;31.03;97679.44;5013801;28;1041;-73
2022/05/24 06:46:52;;;;;;;;;;;;;;;21.49;30.89;97676.38;4993997;28;1096;-73
2022/05/24 06:49:18;;;;;;;;;;;;;;;21.26;31.25;97683.94;4997085;28;981;-73
2022/05/24 06:51:43;;;;;;;;;;;;;;;21.29;31.19;97680.19;4998059;28;1017;-73
2022/05/24 06:54:09;;;;;;;;;;;;;;;21.19;31.41;97691.81;4998030;28;951;-73
2022/05/24 06:56:35;;;;;;;;;;;;;;;21.19;31.33;97683.34;4978262;28;1918;-73
2022/05/24 07:04:44;;;;;;;;;;;;;;;21.32;31.34;97696.28;4901383;29;1293;-73
2022/05/24 07:07:10;;;;;;;;;;;;;;;21.35;31.04;97696.63;4901698;29;1281;-71
2022/05/24 07:09:37;;;;;;;;;;;;;;;21.37;31.04;97699.81;4901808;29;1088;-72
2022/05/24 07:12:03;;;;;;;;;;;;;;;21.31;31.16;97703.22;4901787;29;1024;-72
2022/05/24 07:14:29;;;;;;;;;;;;;;;21.31;31.23;97696.75;4901813;29;1017;-72
2022/05/24 07:16:54;;;;;;;;;;;;;;;21.40;30.76;97704.56;4887676;29;1919;-72
2022/05/24 07:19:20;;;;;;;;;;;;;;;21.38;31.08;97701.41;4920321;29;1121;-72
2022/05/24 07:21:45;;;;;;;;;;;;;;;21.35;31.02;97702.28;4920834;29;1219;-72
2022/05/24 07:24:11;;;;;;;;;;;;;;;21.21;31.11;97698.63;4920371;29;885;-72
2022/05/24 07:26:36;;;;;;;;;;;;;;;21.21;31.52;97703.50;4922168;29;1163;-71
2022/05/24 07:29:02;;;;;;;;;;;;;;;21.23;31.03;97704.63;4939397;29;1016;-72
2022/05/24 07:31:27;;;;;;;;;;;;;;;21.35;31.02;97703.09;4938944;29;1466;-71
2022/05/24 07:33:53;;;;;;;;;;;;;;;21.33;30.87;97712.03;4939384;29;970;-72
2022/05/24 07:36:18;;;;;;;;;;;;;;;21.18;31.21;97710.84;4939297;29;1914;-71
2022/05/24 07:38:44;;;;;;;;;;;;;;;21.11;31.55;97716.72;4989500;28;1075;-72
2022/05/24 07:46:37;;;;;;;;;;;;;;;21.48;31.63;97712.38;4996929;28;1175;-72
2022/05/24 07:49:03;;;;;;;;;;;;;;;21.73;31.60;97700.28;4996925;28;1036;-72
2022/05/24 07:51:28;;;;;;;;;;;;;;;21.94;31.48;97709.34;4996728;28;1002;-72
2022/05/24 07:53:54;;;;;;;;;;;;;;;21.76;31.75;97705.06;4980641;28;963;-72
2022/05/24 07:56:19;;;;;;;;;;;;;;;21.47;31.76;97710.03;4996563;28;1983;-72
2022/05/24 07:58:45;;;;;;;;;;;;;;;21.49;31.54;97702.66;4996418;28;959;-72
2022/05/24 08:01:11;;;;;;;;;;;;;;;21.56;31.45;97715.81;4996074;28;896;-73
2022/05/24 08:03:38;;;;;;;;;;;;;;;21.52;31.17;97713.09;4996759;28;1232;-72
2022/05/24 08:06:04;;;;;;;;;;;;;;;21.54;31.39;97715.44;4996306;28;1062;-72
2022/05/24 08:08:29;;;;;;;;;;;;;;;21.47;31.16;97705.16;4996385;28;981;-72
2022/05/24 08:10:55;;;;;;;;;;;;;;;21.37;31.78;97711.13;4996254;28;997;-72
2022/05/24 08:13:20;;;;;;;;;;;;;;;21.44;31.37;97713.75;4980211;28;1009;-72
2022/05/24 08:15:46;;;;;;;;;;;;;;;21.38;31.52;97715.56;5032581;28;2266;-72
2022/05/24 08:18:12;;;;;;;;;;;;;;;21.39;31.44;97712.25;5038225;28;927;-72
2022/05/24 08:20:37;;;;;;;;;;;;;;;21.41;31.53;97717.50;5038264;28;912;-72
2022/05/24 08:23:03;;;;;;;;;;;;;;;21.39;31.32;97717.13;5037911;28;869;-72
2022/05/24 08:25:30;;;;;;;;;;;;;;;21.42;31.57;97721.91;5003047;28;949;-71
2022/05/24 08:27:56;;;;;;;;;;;;;;;21.44;31.35;97727.91;5038021;28;909;-72
2022/05/24 08:30:22;;;;;;;;;;;;;;;21.43;31.53;97720.66;5038107;28;926;-72
2022/05/24 08:32:48;;;;;;;;;;;;;;;21.50;31.30;97721.25;5036933;28;858;-72
2022/05/24 08:35:14;;;;;;;;;;;;;;;21.32;31.60;97718.94;5036515;28;1981;-72
2022/05/24 08:37:40;;;;;;;;;;;;;;;21.37;31.41;97722.47;5037885;28;960;-72
2022/05/24 08:40:06;;;;;;;;;;;;;;;21.44;31.55;97710.91;5037494;28;953;-72
2022/05/24 08:42:37;;;;;;;;;;;;;;;21.40;31.32;97718.72;4986089;28;1051;-72
2022/05/24 08:50:37;;;;;;;;;;;;;;;21.26;31.50;97711.44;5036415;28;1070;-72
2022/05/24 08:53:12;;;;;;;;;;;;;;;21.37;31.19;97716.81;4995578;28;939;-72
2022/05/24 08:55:38;;;;;;;;;;;;;;;21.37;31.59;97716.81;4995674;28;1983;-72
2022/05/24 08:58:03;;;;;;;;;;;;;;;21.47;31.04;97718.50;4995396;28;1011;-72
2022/05/24 09:00:30;;;;;;;;;;;;;;;21.51;31.08;97710.72;4995683;28;1006;-72
2022/05/24 09:02:56;;;;;;;;;;;;;;;21.45;31.03;97713.31;4995757;28;975;-72
2022/05/24 09:05:44;;;;;;;;;;;;;;;21.49;31.07;97721.69;4995616;28;1020;-72
2022/05/24 09:08:25;;;;;;;;;;;;;;;21.41;31.37;97714.66;4937574;29;1553;-72
2022/05/24 09:11:03;;;;;;;;;;;;;;;21.27;31.61;97710.97;4936999;29;1084;-72
2022/05/24 09:13:47;;;;;;;;;;;;;;;21.29;31.53;97705.66;4921594;29;1071;-72
2022/05/24 09:16:16;;;;;;;;;;;;;;;21.41;31.34;97711.84;4937372;29;1914;-72
2022/05/24 09:18:47;;;;;;;;;;;;;;;21.44;31.07;97705.25;4937446;29;1087;-72
2022/05/24 09:21:33;;;;;;;;;;;;;;;21.54;30.99;97715.44;4937321;29;979;-72
2022/05/24 09:24:02;;;;;;;;;;;;;;;21.43;31.08;97712.16;4946176;29;1897;-72
2022/05/24 09:26:29;;;;;;;;;;;;;;;21.41;31.10;97717.50;4940302;29;976;-72
2022/05/24 09:28:58;;;;;;;;;;;;;;;21.29;31.28;97708.47;4956410;29;968;-72
2022/05/24 09:31:32;;;;;;;;;;;;;;;21.42;31.25;97713.41;4956112;29;1125;-72
2022/05/24 09:34:04;;;;;;;;;;;;;;;21.30;31.54;97718.59;4956160;29;958;-72
2022/05/24 09:36:33;;;;;;;;;;;;;;;21.38;31.11;97712.72;4956273;29;1985;-72
2022/05/24 09:38:58;;;;;;;;;;;;;;;21.33;31.19;97723.34;4936625;29;2190;-71
2022/05/24 09:41:24;;;;;;;;;;;;;;;21.40;31.05;97727.19;4937012;29;1115;-72
2022/05/24 09:44:04;;;;;;;;;;;;;;;21.32;31.36;97718.94;4904888;29;1039;-72
2022/05/24 09:46:29;;;;;;;;;;;;;;;21.33;30.98;97723.34;4981641;28;1042;-72
2022/05/24 09:48:56;;;;;;;;;;;;;;;21.45;30.94;97723.81;4997865;28;1110;-72
2022/05/24 09:51:26;;;;;;;;;;;;;;;21.54;30.76;97727.56;5014142;28;1083;-72
2022/05/24 09:53:52;;;;;;;;;;;;;;;21.39;31.02;97722.78;4997863;28;1031;-72
2022/05/24 09:56:22;;;;;;;;;;;;;;;21.37;31.35;97725.28;4997874;28;1906;-72
2022/05/24 09:58:52;;;;;;;;;;;;;;;21.44;30.83;97713.75;5014186;28;936;-72
2022/05/24 10:01:31;;;;;;;;;;;;;;;21.53;31.03;97725.97;5014007;28;986;-72
2022/05/24 10:04:08;;;;;;;;;;;;;;;21.29;31.12;97722.63;4997676;28;997;-72
2022/05/24 10:06:34;;;;;;;;;;;;;;;21.47;30.69;97718.50;5014418;28;935;-72
2022/05/24 10:09:03;;;;;;;;;;;;;;;21.44;30.91;97722.22;5016077;28;1029;-72
2022/05/24 10:11:32;;;;;;;;;;;;;;;21.46;31.06;97708.44;5036429;28;930;-72
2022/05/24 10:14:09;;;;;;;;;;;;;;;21.40;31.10;97715.88;5035881;28;928;-72
2022/05/24 10:16:41;;;;;;;;;;;;;;;21.37;31.03;97716.81;4994088;28;1921;-72
2022/05/24 10:19:22;;;;;;;;;;;;;;;21.46;30.84;97719.75;4994047;28;1067;-72
2022/05/24 10:21:50;;;;;;;;;;;;;;;21.31;31.10;97708.06;4994360;28;1132;-72
2022/05/24 10:24:23;;;;;;;;;;;;;;;21.18;31.45;97715.69;4993664;28;1061;-72
2022/05/24 10:26:48;;;;;;;;;;;;;;;21.33;31.08;97712.03;4993934;28;996;-72
2022/05/24 10:29:14;;;;;;;;;;;;;;;21.29;31.12;97716.97;4994407;28;1052;-72
2022/05/24 10:31:44;;;;;;;;;;;;;;;21.46;31.20;97719.75;4994267;28;940;-72
2022/05/24 10:39:55;;;;;;;;;;;;;;;21.46;30.94;97728.25;4974778;28;971;-72
2022/05/24 10:42:52;;;;;;;;;;;;;;;21.42;31.13;97719.06;4974466;28;1044;-72
2022/05/24 10:45:20;;;;;;;;;;;;;;;21.28;31.06;97718.22;4955118;29;1096;-72
2022/05/24 10:47:51;;;;;;;;;;;;;;;21.22;31.50;97717.19;4939415;29;1014;-72
2022/05/24 10:50:23;;;;;;;;;;;;;;;21.26;31.21;97723.53;4955535;29;1025;-72
2022/05/24 10:52:52;;;;;;;;;;;;;;;21.52;30.88;97724.41;4939672;29;1060;-72
2022/05/24 10:55:17;;;;;;;;;;;;;;;21.40;30.86;97728.03;4955353;29;1907;-72
2022/05/24 10:58:03;;;;;;;;;;;;;;;21.28;31.03;97721.03;4955224;29;1007;-72
2022/05/24 11:00:34;;;;;;;;;;;;;;;21.25;31.28;97733.28;4954753;29;1110;-71
2022/05/24 11:03:10;;;;;;;;;;;;;;;21.46;31.13;97743.19;4955351;29;902;-72
2022/05/24 11:05:36;;;;;;;;;;;;;;;21.58;32.26;97738.78;4939393;29;962;-72
2022/05/24 11:08:21;;;;;;;;;;;;;;;21.75;32.21;97736.66;4935578;29;984;-72
2022/05/24 11:10:47;;;;;;;;;;;;;;;21.73;32.35;97742.78;4936106;29;935;-72
2022/05/24 11:13:14;;;;;;;;;;;;;;;21.67;32.08;97747.41;4936105;29;982;-72
2022/05/24 11:15:41;;;;;;;;;;;;;;;21.59;31.76;97746.03;4935799;29;1906;-72
2022/05/24 11:18:14;;;;;;;;;;;;;;;21.60;31.50;97733.47;4936080;29;896;-72
2022/05/24 11:20:41;;;;;;;;;;;;;;;21.47;32.05;97738.34;4951837;28;1044;-72
2022/05/24 11:23:11;;;;;;;;;;;;;;;21.65;31.53;97738.56;4974318;28;1003;-72
2022/05/24 11:25:38;;;;;;;;;;;;;;;21.50;31.49;97738.22;4974502;28;1162;-72
2022/05/24 11:28:04;;;;;;;;;;;;;;;21.33;31.89;97729.00;4974259;28;1086;-72
2022/05/24 11:30:36;;;;;;;;;;;;;;;21.42;32.00;97733.22;4974149;28;1056;-72
2022/05/24 11:33:05;;;;;;;;;;;;;;;21.41;31.77;97725.97;4974159;28;897;-72
2022/05/24 11:35:39;;;;;;;;;;;;;;;21.52;31.76;97724.41;4977162;28;1967;-72
2022/05/24 11:38:18;;;;;;;;;;;;;;;21.32;32.00;97721.78;4979879;28;991;-72
2022/05/24 11:41:01;;;;;;;;;;;;;;;21.27;31.86;97719.47;4999413;28;1095;-72
2022/05/24 11:43:36;;;;;;;;;;;;;;;21.44;31.63;97719.41;5018768;28;1169;-72
2022/05/24 11:46:07;;;;;;;;;;;;;;;21.41;31.39;97711.84;5019272;28;969;-72
2022/05/24 11:48:43;;;;;;;;;;;;;;;21.54;31.41;97707.75;5019166;28;884;-72
2022/05/24 11:51:28;;;;;;;;;;;;;;;21.41;31.59;97706.97;5018985;28;1021;-72
2022/05/24 11:53:54;;;;;;;;;;;;;;;21.44;31.30;97699.59;4958042;29;1063;-72
2022/05/24 11:56:21;;;;;;;;;;;;;;;21.47;31.19;97687.38;4942017;29;1982;-72
2022/05/24 11:58:47;;;;;;;;;;;;;;;21.52;31.35;97700.97;4957888;29;973;-72
2022/05/24 12:01:16;;;;;;;;;;;;;;;21.53;31.26;97696.88;4958034;29;970;-73
2022/05/24 12:09:53;;;;;;;;;;;;;;;21.28;31.67;97664.44;4957519;29;1030;-72
2022/05/24 12:12:20;;;;;;;;;;;;;;;21.48;31.26;97661.44;4922303;29;1043;-72
2022/05/24 12:14:45;;;;;;;;;;;;;;;21.55;30.91;97666.91;4938612;29;1046;-73
2022/05/24 12:17:14;;;;;;;;;;;;;;;21.41;31.46;97661.69;4938405;29;1993;-72
2022/05/24 12:19:42;;;;;;;;;;;;;;;21.27;31.35;97673.41;4938593;29;1027;-72
2022/05/24 12:22:08;;;;;;;;;;;;;;;21.45;31.22;97661.53;4938623;29;969;-72
2022/05/24 12:24:40;;;;;;;;;;;;;;;21.29;31.68;97671.69;4938337;29;985;-72
2022/05/24 12:27:24;;;;;;;;;;;;;;;21.25;31.78;97676.69;4938055;29;968;-72
2022/05/24 12:29:52;;;;;;;;;;;;;;;21.26;31.37;97678.25;4938643;28;1001;-72
2022/05/24 12:32:17;;;;;;;;;;;;;;;21.46;31.31;97680.13;4995978;28;1075;-72
2022/05/24 12:34:43;;;;;;;;;;;;;;;21.42;31.19;97668.13;4996450;28;996;-72
2022/05/24 12:37:27;;;;;;;;;;;;;;;21.40;31.17;97677.06;4996042;28;1981;-72
2022/05/24 12:40:05;;;;;;;;;;;;;;;21.35;31.26;97679.66;4996394;28;1035;-72
2022/05/24 12:42:31;;;;;;;;;;;;;;;21.44;31.20;97679.78;4999953;28;1001;-72
2022/05/24 12:44:58;;;;;;;;;;;;;;;21.48;31.19;97681.25;5016531;28;1011;-72
2022/05/24 12:47:24;;;;;;;;;;;;;;;21.44;31.05;97676.94;4995082;28;1050;-72
2022/05/24 12:49:49;;;;;;;;;;;;;;;21.41;31.39;97683.53;4995809;28;990;-72
2022/05/24 12:52:22;;;;;;;;;;;;;;;21.41;31.29;97677.88;4995781;28;1034;-72
2022/05/24 12:54:54;;;;;;;;;;;;;;;21.40;31.26;97696.06;4995780;28;968;-72
2022/05/24 12:57:23;;;;;;;;;;;;;;;21.53;31.21;97675.03;4956676;29;1129;-72
2022/05/24 12:59:52;;;;;;;;;;;;;;;21.48;31.07;97678.44;4956927;29;1012;-72
2022/05/24 13:02:17;;;;;;;;;;;;;;;21.41;31.49;97683.53;4956888;29;907;-72
2022/05/24 13:04:43;;;;;;;;;;;;;;;21.36;31.21;97692.56;4956863;29;953;-72
2022/05/24 13:07:42;;;;;;;;;;;;;;;21.41;31.51;97692.03;4940748;29;1146;-72
2022/05/24 13:10:37;;;;;;;;;;;;;;;21.40;31.38;97698.91;4899672;29;1066;-72
2022/05/24 13:13:19;;;;;;;;;;;;;;;21.47;31.33;97687.38;4843912;29;1051;-72
2022/05/24 13:15:52;;;;;;;;;;;;;;;21.49;31.07;97702.66;4828727;29;1990;-72
2022/05/24 13:18:17;;;;;;;;;;;;;;;21.45;31.03;97702.00;4837108;29;1092;-72
2022/05/24 13:20:44;;;;;;;;;;;;;;;21.53;30.97;97696.88;4862176;29;1004;-72
2022/05/24 13:23:15;;;;;;;;;;;;;;;21.60;31.61;97691.00;4862210;29;1018;-72
2022/05/24 13:25:49;;;;;;;;;;;;;;;21.71;32.42;97697.13;4862046;29;1083;-72
2022/05/24 13:28:38;;;;;;;;;;;;;;;21.92;32.75;97694.84;4870868;29;1055;-73
2022/05/24 13:33:49;;;;;;;;;;;;;;;21.54;33.03;97701.31;4843855;29;1022;-72
2022/05/24 13:36:16;;;;;;;;;;;;;;;21.60;32.27;97691.00;4843312;29;1988;-72
2022/05/24 13:38:42;;;;;;;;;;;;;;;21.51;32.41;97682.41;4843584;29;1006;-72
2022/05/24 13:41:07;;;;;;;;;;;;;;;21.58;32.06;97687.84;4843010;29;1159;-72
2022/05/24 13:43:33;;;;;;;;;;;;;;;21.51;31.76;97682.41;4843405;29;1021;-73
2022/05/24 13:46:08;;;;;;;;;;;;;;;21.50;31.90;97670.28;4844462;29;1039;-72
2022/05/24 13:48:44;;;;;;;;;;;;;;;21.54;31.68;97670.16;4872838;29;956;-72